Time;durP1;ratioP1;P1;durP2;ratioP2;P2;SDS_P1;SDS_P2;PMS_P1;PMS_P2;Temp;Humidity;BMP_temperature;BMP_pressure;BME280_temperature;BME280_humidity;BME280_pressure;Samples;Min_cycle;Max_cycle;Signal;HPM_P1;HPM_P2
2023/08/07 00:00:44;;;;;;;14.70;6.30;;;;;;;27.09;46.67;98073.71;79508;1298;3013902;-66
2023/08/07 00:03:11;;;;;;;18.20;6.20;;;;;;;27.06;46.64;98074.67;79458;1297;3013500;-67
2023/08/07 00:05:39;;;;;;;16.40;5.90;;;;;;;27.04;46.44;98072.59;78293;1298;3029570;-71
2023/08/07 00:08:06;;;;;;;10.60;5.20;;;;;;;27.03;46.55;98068.84;79474;1295;3013171;-68
2023/08/07 00:10:32;;;;;;;16.20;6.10;;;;;;;27.03;46.57;98069.46;79468;1298;3011559;-67
2023/08/07 00:13:00;;;;;;;13.00;5.60;;;;;;;27.02;46.63;98065.58;78218;1298;3028195;-65
2023/08/07 00:15:27;;;;;;;15.10;5.00;;;;;;;27.01;46.80;98062.33;79410;1298;3013471;-63
2023/08/07 00:17:53;;;;;;;16.10;6.10;;;;;;;26.97;46.73;98060.24;79504;1297;3011650;-65
2023/08/07 00:20:21;;;;;;;7.80;5.30;;;;;;;26.95;46.67;98059.07;78257;1298;3026552;-68
2023/08/07 00:22:48;;;;;;;14.00;5.20;;;;;;;26.94;46.69;98058.67;79446;1296;3020750;-69
2023/08/07 00:25:14;;;;;;;10.60;5.40;;;;;;;26.92;46.76;98059.04;79430;1297;3011630;-67
2023/08/07 00:27:42;;;;;;;13.80;5.40;;;;;;;26.90;46.68;98060.45;78249;1298;3026751;-66
2023/08/07 00:30:10;;;;;;;18.60;5.40;;;;;;;26.86;46.83;98060.48;79522;1295;3016048;-63
2023/08/07 00:32:37;;;;;;;19.20;6.10;;;;;;;26.80;47.02;98058.48;79498;1298;3011930;-67
2023/08/07 00:35:05;;;;;;;11.50;5.10;;;;;;;26.78;47.06;98048.65;78199;1297;3050641;-69
2023/08/07 00:37:32;;;;;;;13.90;5.60;;;;;;;26.76;46.93;98050.77;79426;1295;3013253;-64
2023/08/07 00:39:59;;;;;;;12.40;5.40;;;;;;;26.73;46.94;98043.35;79384;1296;3012860;-65
2023/08/07 00:42:26;;;;;;;16.40;5.30;;;;;;;26.69;47.07;98043.23;78172;1298;3052768;-64
2023/08/07 00:44:53;;;;;;;12.20;5.20;;;;;;;26.68;47.04;98042.29;79535;1297;3013711;-69
2023/08/07 00:47:20;;;;;;;16.00;5.30;;;;;;;26.66;47.07;98041.88;79365;1295;3012901;-66
2023/08/07 00:49:48;;;;;;;14.80;4.80;;;;;;;26.63;47.22;98045.14;78190;1298;3029110;-69
2023/08/07 00:52:14;;;;;;;15.70;5.40;;;;;;;26.61;47.28;98051.88;79228;1301;3013140;-67
2023/08/07 00:54:41;;;;;;;19.00;5.10;;;;;;;26.61;47.19;98055.70;79245;1298;3011589;-65
2023/08/07 00:57:12;;;;;;;10.00;5.30;;;;;;;26.60;47.27;98061.80;78174;1298;3025040;-67
2023/08/07 00:59:39;;;;;;;18.00;5.40;;;;;;;26.59;47.45;98070.52;79439;1298;3013194;-71
2023/08/07 01:02:07;;;;;;;17.70;6.00;;;;;;;26.54;47.72;98066.55;78068;1301;3026536;-67
2023/08/07 01:04:34;;;;;;;13.40;5.80;;;;;;;26.48;47.91;98068.23;79385;1295;3018742;-68
2023/08/07 01:07:00;;;;;;;13.70;5.60;;;;;;;26.45;47.99;98068.43;79259;1300;3011764;-65
2023/08/07 01:09:28;;;;;;;19.60;5.50;;;;;;;26.43;47.96;98064.50;78350;1298;3026754;-62
2023/08/07 01:12:19;;;;;;;10.20;5.20;;;;;;;26.41;47.94;98059.84;79249;1301;3013096;-65
2023/08/07 01:15:18;;;;;;;14.30;5.10;;;;;;;26.37;48.06;98060.70;78207;1298;3068438;-62
2023/08/07 01:17:46;;;;;;;12.30;5.50;;;;;;;26.34;48.06;98062.82;78183;1294;3051720;-68
2023/08/07 01:20:13;;;;;;;13.80;5.90;;;;;;;26.30;48.15;98056.05;79233;1296;3013053;-71
2023/08/07 01:22:40;;;;;;;14.70;5.50;;;;;;;26.27;48.08;98059.33;79262;1300;3011626;-65
2023/08/07 01:25:08;;;;;;;12.90;5.10;;;;;;;26.26;48.10;98061.07;77979;1300;3028691;-66
2023/08/07 01:27:54;;;;;;;11.00;5.20;;;;;;;26.25;47.99;98055.42;79537;1295;3021035;-68
2023/08/07 01:30:22;;;;;;;14.00;5.70;;;;;;;26.22;48.04;98052.44;78260;1299;3069326;-67
2023/08/07 01:33:10;;;;;;;15.20;5.50;;;;;;;26.19;48.15;98048.17;79485;1295;3013081;-68
2023/08/07 01:35:44;;;;;;;19.30;5.00;;;;;;;26.19;48.03;98044.29;78204;1298;3049768;-71
2023/08/07 01:38:11;;;;;;;12.60;5.20;;;;;;;26.17;47.96;98037.92;79430;1296;3013499;-70
2023/08/07 01:40:39;;;;;;;13.70;5.10;;;;;;;26.16;48.13;98030.70;78469;1297;3049439;-68
2023/08/07 01:43:05;;;;;;;12.00;5.00;;;;;;;26.12;47.99;98025.87;79466;1295;3012868;-69
2023/08/07 01:45:32;;;;;;;13.40;4.90;;;;;;;26.09;47.97;98027.94;79478;1295;3011730;-69
2023/08/07 01:47:59;;;;;;;14.00;4.70;;;;;;;26.10;47.86;98028.92;78332;1298;3027851;-65
2023/08/07 01:50:26;;;;;;;15.90;5.10;;;;;;;26.09;47.94;98023.80;79487;1297;3013059;-70
2023/08/07 01:52:53;;;;;;;24.40;4.80;;;;;;;26.06;48.03;98023.92;79544;1295;3011606;-70
2023/08/07 01:55:21;;;;;;;11.90;4.90;;;;;;;26.05;48.03;98023.90;78185;1297;3025819;-66
2023/08/07 01:57:52;;;;;;;18.40;5.70;;;;;;;26.02;48.09;98024.84;79405;1297;3011677;-66
2023/08/07 02:00:20;;;;;;;9.90;4.90;;;;;;;26.01;48.28;98021.11;78216;1295;3053206;-64
2023/08/07 02:02:46;;;;;;;14.60;4.80;;;;;;;25.97;48.28;98021.57;79431;1296;3018530;-68
2023/08/07 02:05:13;;;;;;;14.70;4.80;;;;;;;25.95;48.26;98018.88;79436;1299;3011697;-68
2023/08/07 02:07:42;;;;;;;17.50;5.00;;;;;;;25.92;48.25;98016.71;78190;1298;3025769;-66
2023/08/07 02:10:09;;;;;;;20.70;5.30;;;;;;;25.92;48.09;98014.98;79465;1295;3012735;-69
2023/08/07 02:12:37;;;;;;;16.90;5.30;;;;;;;25.90;48.29;98015.14;79471;1298;3011368;-66
2023/08/07 02:15:05;;;;;;;16.10;5.20;;;;;;;25.87;48.45;98013.89;78469;1297;3052317;-70
2023/08/07 02:17:37;;;;;;;11.50;4.50;;;;;;;25.87;48.34;98010.79;79549;1294;3014923;-70
2023/08/07 02:20:06;;;;;;;17.40;5.00;;;;;;;25.86;48.33;98025.78;78402;1298;3056198;-69
2023/08/07 02:22:32;;;;;;;22.10;5.00;;;;;;;25.84;48.41;98033.02;79455;1294;3013809;-70
2023/08/07 02:24:59;;;;;;;13.90;4.90;;;;;;;25.82;48.49;98033.33;79458;1295;3011583;-65
2023/08/07 02:27:27;;;;;;;20.30;4.70;;;;;;;25.81;48.26;98031.42;78285;1298;3053297;-65
2023/08/07 02:29:54;;;;;;;14.90;4.90;;;;;;;25.80;48.29;98033.44;79413;1297;3013474;-65
2023/08/07 02:32:20;;;;;;;9.60;4.70;;;;;;;25.76;48.35;98032.74;79432;1297;3011906;-69
2023/08/07 02:34:48;;;;;;;17.10;4.50;;;;;;;25.74;48.28;98023.21;78369;1298;3027376;-65
2023/08/07 02:37:15;;;;;;;12.10;5.00;;;;;;;25.72;48.49;98028.95;79557;1298;3012655;-66
2023/08/07 02:39:44;;;;;;;17.70;5.00;;;;;;;25.71;48.54;98032.85;79416;1295;3012766;-66
2023/08/07 02:42:12;;;;;;;12.00;5.20;;;;;;;25.71;48.63;98037.48;78245;1297;3053960;-68
2023/08/07 02:44:38;;;;;;;11.80;4.60;;;;;;;25.68;48.81;98036.06;79345;1295;3013172;-67
2023/08/07 02:47:05;;;;;;;15.30;4.60;;;;;;;25.62;48.95;98032.95;79421;1298;3011531;-67
2023/08/07 02:49:33;;;;;;;17.60;4.90;;;;;;;25.66;48.93;98027.86;78326;1297;3025925;-66
2023/08/07 02:52:00;;;;;;;15.00;5.70;;;;;;;25.62;49.15;98030.69;79592;1295;3013293;-68
2023/08/07 02:54:26;;;;;;;19.80;4.40;;;;;;;25.60;49.27;98029.82;79537;1296;3012927;-65
2023/08/07 02:56:56;;;;;;;13.30;5.10;;;;;;;25.60;49.21;98019.09;78314;1298;3026463;-68
2023/08/07 02:59:22;;;;;;;15.70;5.10;;;;;;;25.59;49.28;98020.36;79476;1297;3013509;-67
2023/08/07 03:01:49;;;;;;;14.00;5.80;;;;;;;25.57;49.51;98026.98;79435;1294;3011899;-70
2023/08/07 03:04:17;;;;;;;17.10;5.20;;;;;;;25.58;49.47;98021.83;78356;1294;3055488;-70
2023/08/07 03:06:44;;;;;;;17.80;5.30;;;;;;;25.57;49.61;98024.08;79549;1295;3013034;-68
2023/08/07 03:09:10;;;;;;;16.40;5.80;;;;;;;25.55;49.80;98014.55;79613;1298;3013050;-67
2023/08/07 03:11:38;;;;;;;15.30;5.40;;;;;;;25.54;49.76;98006.36;78309;1298;3028231;-65
2023/08/07 03:14:05;;;;;;;18.50;5.50;;;;;;;25.55;49.75;98011.81;79340;1298;3013006;-65
2023/08/07 03:16:31;;;;;;;19.70;5.40;;;;;;;25.54;50.02;98014.97;79530;1298;3011796;-66
2023/08/07 03:18:59;;;;;;;14.90;4.90;;;;;;;25.52;50.02;98012.93;78361;1294;3027757;-68
2023/08/07 03:21:26;;;;;;;13.80;5.00;;;;;;;25.52;50.02;98015.33;79278;1294;3013437;-67
2023/08/07 03:23:52;;;;;;;17.90;6.00;;;;;;;25.52;50.26;98014.99;79590;1296;3012977;-67
2023/08/07 03:26:20;;;;;;;10.00;4.90;;;;;;;25.52;50.22;98016.98;78413;1295;3028085;-66
2023/08/07 03:28:48;;;;;;;15.10;5.20;;;;;;;25.53;50.32;98022.46;79411;1298;3013458;-67
2023/08/07 03:31:15;;;;;;;16.00;5.10;;;;;;;25.55;50.39;98021.54;79234;1301;3011846;-69
2023/08/07 03:33:43;;;;;;;20.00;4.90;;;;;;;25.55;50.38;98029.78;78015;1301;3055935;-66
2023/08/07 03:36:10;;;;;;;18.60;5.20;;;;;;;25.56;50.51;98034.05;79448;1294;3018507;-67
2023/08/07 03:38:37;;;;;;;13.40;4.70;;;;;;;25.58;50.49;98036.32;79574;1294;3013177;-66
2023/08/07 03:41:05;;;;;;;16.80;4.70;;;;;;;25.60;50.80;98036.42;78214;1301;3052600;-67
2023/08/07 03:43:32;;;;;;;16.00;4.70;;;;;;;25.60;50.85;98044.80;79512;1295;3013569;-68
2023/08/07 03:45:59;;;;;;;26.60;5.30;;;;;;;25.63;50.62;98038.98;79463;1296;3013298;-63
2023/08/07 03:48:27;;;;;;;15.60;4.90;;;;;;;25.66;50.80;98037.33;78085;1301;3056528;-64
2023/08/07 03:51:04;;;;;;;16.30;5.20;;;;;;;25.71;50.83;98037.20;79523;1295;3018317;-63
2023/08/07 03:53:32;;;;;;;28.20;5.00;;;;;;;25.75;50.71;98029.69;78198;1301;3050404;-72
2023/08/07 03:55:59;;;;;;;23.50;5.20;;;;;;;25.76;50.79;98030.59;79672;1295;3013250;-67
2023/08/07 03:58:25;;;;;;;18.30;4.90;;;;;;;25.72;50.83;98030.05;79478;1296;3013930;-64
2023/08/07 04:00:53;;;;;;;18.90;4.70;;;;;;;25.73;51.04;98028.98;78065;1299;3026174;-67
2023/08/07 04:03:20;;;;;;;21.40;4.70;;;;;;;25.74;51.03;98025.02;79323;1296;3013658;-65
2023/08/07 04:05:46;;;;;;;19.50;4.60;;;;;;;25.73;51.62;98024.63;79613;1297;3013671;-65
2023/08/07 04:08:14;;;;;;;17.70;4.60;;;;;;;25.74;51.59;98031.23;78231;1298;3028399;-64
2023/08/07 04:10:41;;;;;;;19.30;4.70;;;;;;;25.72;51.86;98022.27;79514;1298;3012961;-66
2023/08/07 04:13:08;;;;;;;17.20;4.60;;;;;;;25.74;51.56;98024.45;79284;1300;3011632;-64
2023/08/07 04:15:36;;;;;;;11.40;4.50;;;;;;;25.73;51.63;98024.52;77995;1301;3051812;-66
2023/08/07 04:18:03;;;;;;;14.40;5.00;;;;;;;25.73;51.87;98024.84;79582;1295;3012712;-64
2023/08/07 04:20:30;;;;;;;17.70;5.40;;;;;;;25.73;52.11;98024.27;79603;1296;3012948;-63
2023/08/07 04:22:57;;;;;;;19.30;5.10;;;;;;;25.73;52.28;98018.70;78353;1295;3028127;-62
2023/08/07 04:25:24;;;;;;;20.30;5.10;;;;;;;25.74;52.22;98020.35;79481;1297;3013007;-66
2023/08/07 04:27:50;;;;;;;21.30;5.20;;;;;;;25.74;52.54;98021.60;79662;1298;3011796;-64
2023/08/07 04:30:19;;;;;;;17.60;5.10;;;;;;;25.73;52.67;98021.14;78218;1298;3027955;-64
2023/08/07 04:32:45;;;;;;;17.10;5.00;;;;;;;25.77;52.60;98018.73;79588;1298;3012912;-63
2023/08/07 04:35:12;;;;;;;16.10;5.20;;;;;;;25.82;52.61;98013.67;79450;1295;3011337;-65
2023/08/07 04:37:39;;;;;;;15.50;4.90;;;;;;;25.84;52.40;98010.73;78314;1297;3029003;-64
2023/08/07 04:40:08;;;;;;;16.90;4.80;;;;;;;25.88;52.20;98013.42;79748;1298;3013280;-64
2023/08/07 04:42:35;;;;;;;21.10;5.20;;;;;;;25.91;52.25;98023.61;79703;1293;3011604;-63
2023/08/07 04:45:03;;;;;;;18.90;5.40;;;;;;;25.95;52.24;98028.68;78246;1296;3052482;-67
2023/08/07 04:47:32;;;;;;;19.10;5.20;;;;;;;25.99;52.53;98034.15;79552;1296;3012031;-71
2023/08/07 04:49:58;;;;;;;16.00;4.80;;;;;;;26.03;52.37;98029.11;79628;1295;3012999;-64
2023/08/07 04:52:26;;;;;;;19.50;5.00;;;;;;;26.04;52.18;98028.29;78378;1295;3049981;-65
2023/08/07 04:54:53;;;;;;;20.90;4.70;;;;;;;26.07;52.24;98023.79;79879;1295;3012618;-65
2023/08/07 04:57:19;;;;;;;23.60;5.10;;;;;;;26.10;52.13;98016.83;79435;1297;3013118;-65
2023/08/07 04:59:47;;;;;;;14.90;5.20;;;;;;;26.14;52.32;98014.50;78281;1294;3028814;-65
2023/08/07 05:02:14;;;;;;;18.80;5.00;;;;;;;26.21;51.90;98015.27;79490;1295;3020577;-64
2023/08/07 05:04:40;;;;;;;19.60;5.00;;;;;;;26.26;52.15;98011.91;79578;1294;3013176;-63
2023/08/07 05:07:09;;;;;;;21.70;5.30;;;;;;;26.31;52.15;98008.48;78105;1300;3026114;-65
2023/08/07 05:09:36;;;;;;;25.50;5.70;;;;;;;26.35;51.73;98008.48;79964;1298;3013824;-65
2023/08/07 05:12:03;;;;;;;26.10;5.00;;;;;;;26.39;51.81;98011.55;79539;1298;3011902;-64
2023/08/07 05:14:31;;;;;;;17.90;5.30;;;;;;;26.46;51.89;98013.80;78485;1295;3051602;-67
2023/08/07 05:16:57;;;;;;;19.40;4.90;;;;;;;26.51;52.25;98016.17;79556;1295;3013535;-66
2023/08/07 05:19:24;;;;;;;30.00;6.00;;;;;;;26.54;51.93;98015.79;79501;1296;3011567;-66
2023/08/07 05:21:51;;;;;;;26.50;5.40;;;;;;;26.62;51.97;98013.48;78679;1298;3028535;-64
2023/08/07 05:24:18;;;;;;;23.40;5.50;;;;;;;26.66;52.47;98009.01;79525;1298;3013476;-59
2023/08/07 05:26:44;;;;;;;26.60;5.40;;;;;;;26.70;51.97;98003.45;79559;1297;3011595;-62
2023/08/07 05:29:12;;;;;;;29.90;6.00;;;;;;;26.73;51.50;98003.59;78219;1298;3026776;-62
2023/08/07 05:31:39;;;;;;;28.20;5.60;;;;;;;26.79;51.39;98000.61;79593;1295;3020828;-62
2023/08/07 05:34:06;;;;;;;22.30;5.90;;;;;;;26.85;51.70;98005.11;79651;1298;3011592;-62
2023/08/07 05:36:34;;;;;;;13.90;4.90;;;;;;;26.87;51.87;98005.31;78269;1295;3028213;-61
2023/08/07 05:39:01;;;;;;;25.00;4.90;;;;;;;26.91;51.47;98004.59;79435;1297;3019044;-64
2023/08/07 05:41:27;;;;;;;19.50;5.40;;;;;;;26.94;51.53;98002.77;79397;1295;3011403;-63
2023/08/07 05:43:55;;;;;;;19.80;5.60;;;;;;;26.96;51.70;98006.65;78303;1295;3026433;-62
2023/08/07 05:46:22;;;;;;;25.60;5.00;;;;;;;27.02;51.62;98004.02;79520;1295;3018799;-63
2023/08/07 05:48:49;;;;;;;23.10;5.50;;;;;;;27.12;51.54;98004.70;79370;1295;3012763;-62
2023/08/07 05:51:16;;;;;;;26.30;5.30;;;;;;;27.22;52.00;98011.48;78216;1295;3028654;-65
2023/08/07 05:53:43;;;;;;;23.10;5.70;;;;;;;27.33;52.01;98006.92;79541;1298;3013658;-65
2023/08/07 05:56:09;;;;;;;23.00;5.20;;;;;;;27.43;52.12;98012.10;79470;1298;3011854;-66
2023/08/07 05:58:37;;;;;;;21.30;6.00;;;;;;;27.47;51.67;98018.83;78232;1298;3026674;-64
2023/08/07 06:01:04;;;;;;;21.00;6.30;;;;;;;27.48;52.18;98017.77;79401;1295;3013365;-61
2023/08/07 06:03:31;;;;;;;28.90;6.40;;;;;;;27.34;52.21;98030.42;79632;1297;3013061;-70
2023/08/07 06:05:59;;;;;;;30.80;6.10;;;;;;;27.31;52.02;98022.76;78473;1295;3047885;-67
2023/08/07 06:08:26;;;;;;;24.50;5.90;;;;;;;27.36;52.14;98016.41;79795;1298;3018676;-72
2023/08/07 06:10:52;;;;;;;18.80;5.80;;;;;;;27.36;52.73;98023.48;79553;1296;3011372;-70
2023/08/07 06:13:20;;;;;;;26.20;5.80;;;;;;;27.41;52.76;98023.70;78325;1295;3029681;-75
2023/08/07 06:15:47;;;;;;;19.90;6.00;;;;;;;27.42;53.18;98019.04;79646;1295;3013074;-73
2023/08/07 06:18:14;;;;;;;25.60;6.50;;;;;;;27.48;53.05;98020.79;79471;1298;3011440;-72
2023/08/07 06:20:42;;;;;;;20.20;5.90;;;;;;;27.55;53.26;98020.20;78244;1296;3026597;-69
2023/08/07 06:23:08;;;;;;;19.90;7.00;;;;;;;27.54;52.81;98023.33;79520;1299;3013055;-74
2023/08/07 06:25:35;;;;;;;20.80;7.00;;;;;;;27.68;52.41;98023.92;79555;1301;3012006;-70
2023/08/07 13:57:56;;;;;;;10.40;4.00;;;;;;;34.17;29.79;98278.67;81578;1294;3013373;-62
2023/08/07 14:00:23;;;;;;;5.80;3.10;;;;;;;33.74;30.28;98295.90;80250;1297;3013222;-63
2023/08/07 14:02:50;;;;;;;6.70;3.60;;;;;;;33.84;30.53;98287.89;80128;1297;3011816;-61
2023/08/07 14:05:17;;;;;;;6.20;3.70;;;;;;;33.98;30.38;98278.45;79082;1297;3025706;-66
2023/08/07 14:07:44;;;;;;;6.90;3.80;;;;;;;33.98;29.97;98292.39;80485;1300;3018408;-63
2023/08/07 14:10:15;;;;;;;9.20;3.40;;;;;;;33.82;30.00;98293.05;79676;1297;3011500;-65
2023/08/07 14:12:41;;;;;;;13.80;4.30;;;;;;;33.80;30.16;98300.64;80520;1294;3018406;-66
2023/08/07 14:15:08;;;;;;;12.10;4.50;;;;;;;33.58;30.01;98301.23;80827;1293;3011736;-63
2023/08/07 14:17:36;;;;;;;15.50;3.60;;;;;;;33.61;30.24;98296.77;79406;1294;3026563;-63
2023/08/07 14:20:04;;;;;;;7.80;3.30;;;;;;;33.77;30.05;98301.52;80004;1300;3013289;-66
2023/08/07 14:22:32;;;;;;;7.90;3.10;;;;;;;33.90;30.22;98308.96;79479;1294;3011894;-65
2023/08/07 14:24:59;;;;;;;8.80;2.70;;;;;;;33.84;29.77;98316.11;78566;1294;3051970;-67
2023/08/07 14:27:26;;;;;;;5.80;3.40;;;;;;;33.80;30.44;98312.73;79957;1298;3012518;-65
2023/08/07 14:29:52;;;;;;;10.80;3.60;;;;;;;33.97;30.62;98310.44;79930;1294;3011535;-69
2023/08/07 14:32:20;;;;;;;11.40;3.00;;;;;;;34.44;29.89;98312.20;78553;1300;3028581;-64
2023/08/07 14:34:47;;;;;;;6.90;3.10;;;;;;;34.51;29.75;98310.59;79789;1297;3013374;-68
2023/08/07 14:37:14;;;;;;;9.30;2.60;;;;;;;34.77;29.17;98311.73;79627;1295;3012228;-66
2023/08/07 14:39:42;;;;;;;6.40;2.40;;;;;;;34.48;28.49;98318.50;78484;1294;3051354;-67
2023/08/07 14:42:08;;;;;;;5.20;2.60;;;;;;;34.49;28.50;98312.23;79589;1294;3013248;-64
2023/08/07 14:44:36;;;;;;;7.00;2.80;;;;;;;34.61;28.68;98314.20;79708;1298;3012017;-77
2023/08/07 14:47:04;;;;;;;5.30;2.90;;;;;;;34.53;28.82;98324.16;78564;1294;3049307;-73
2023/08/07 14:49:30;;;;;;;8.80;3.00;;;;;;;34.46;29.17;98322.21;79587;1294;3013468;-75
2023/08/07 14:51:57;;;;;;;5.00;2.80;;;;;;;34.68;28.33;98319.52;79602;1300;3011787;-74
2023/08/07 14:54:24;;;;;;;9.50;2.70;;;;;;;34.77;28.15;98316.80;78700;1295;3026442;-73
2023/08/07 14:56:51;;;;;;;10.30;2.50;;;;;;;34.94;27.70;98314.02;79721;1294;3011415;-75
2023/08/07 14:59:17;;;;;;;6.40;2.30;;;;;;;35.15;27.22;98320.49;79808;1294;3013213;-73
2023/08/07 15:01:45;;;;;;;5.20;2.30;;;;;;;35.07;27.05;98325.60;78405;1294;3026002;-71
2023/08/07 15:04:12;;;;;;;8.00;2.60;;;;;;;34.80;27.34;98326.27;80058;1298;3013480;-73
2023/08/07 15:06:38;;;;;;;10.40;2.80;;;;;;;35.15;27.28;98326.17;80104;1294;3011778;-72
2023/08/07 15:09:06;;;;;;;7.70;2.80;;;;;;;35.30;27.38;98334.38;78702;1294;3025755;-72
2023/08/07 15:11:32;;;;;;;6.80;2.50;;;;;;;35.28;27.38;98333.14;79843;1296;3013831;-71
2023/08/07 15:13:59;;;;;;;10.00;3.10;;;;;;;35.20;27.57;98321.83;79699;1298;3011662;-72
2023/08/07 15:16:26;;;;;;;11.50;2.60;;;;;;;35.27;27.65;98326.77;78437;1298;3026065;-71
2023/08/07 15:18:53;;;;;;;7.00;2.60;;;;;;;35.27;27.66;98335.45;79666;1300;3012981;-73
2023/08/07 15:21:20;;;;;;;5.80;2.90;;;;;;;35.10;27.68;98337.73;79599;1294;3011898;-70
2023/08/07 15:23:47;;;;;;;5.40;3.80;;;;;;;35.20;27.77;98338.95;78436;1298;3027170;-74
2023/08/07 15:26:14;;;;;;;4.40;2.40;;;;;;;35.18;27.67;98335.87;79700;1294;3019165;-72
2023/08/07 15:28:40;;;;;;;5.20;2.70;;;;;;;35.22;27.67;98333.77;79532;1294;3011889;-73
2023/08/07 15:31:08;;;;;;;7.10;2.60;;;;;;;34.83;27.97;98342.98;78335;1298;3025911;-73
2023/08/07 15:33:35;;;;;;;6.80;3.00;;;;;;;34.89;27.92;98343.61;79826;1298;3013584;-71
2023/08/07 15:36:01;;;;;;;7.00;2.80;;;;;;;34.66;28.20;98346.80;79812;1294;3013597;-74
2023/08/07 15:38:29;;;;;;;6.20;2.70;;;;;;;34.63;28.50;98359.23;78919;1298;3017650;-73
2023/08/07 15:40:56;;;;;;;5.20;2.10;;;;;;;34.62;28.79;98358.52;81183;1294;3018669;-75
2023/08/07 15:43:22;;;;;;;4.30;2.10;;;;;;;34.96;28.73;98351.98;81941;1294;3011339;-74
2023/08/07 15:45:50;;;;;;;9.80;2.50;;;;;;;35.11;28.65;98362.77;80675;1294;3025967;-73
2023/08/07 15:48:17;;;;;;;13.00;2.50;;;;;;;34.97;28.99;98359.61;81026;1298;3011492;-73
2023/08/07 15:50:43;;;;;;;8.40;2.60;;;;;;;35.05;28.92;98357.94;79769;1297;3011413;-74
2023/08/07 15:53:11;;;;;;;7.60;2.90;;;;;;;35.11;29.06;98365.10;78451;1296;3026934;-75
2023/08/07 15:55:38;;;;;;;13.80;2.50;;;;;;;35.16;29.18;98363.13;79684;1294;3013169;-73
2023/08/07 15:58:05;;;;;;;4.40;2.60;;;;;;;35.47;28.72;98363.45;79650;1298;3012911;-75
2023/08/07 16:00:34;;;;;;;4.30;2.30;;;;;;;35.38;28.86;98372.66;78373;1294;3049842;-74
2023/08/07 16:03:05;;;;;;;7.70;2.50;;;;;;;35.32;28.88;98372.97;79568;1300;3013158;-72
2023/08/07 16:05:33;;;;;;;8.20;2.70;;;;;;;35.27;28.94;98376.65;78502;1294;3069807;-74
2023/08/07 16:07:59;;;;;;;3.70;2.50;;;;;;;34.97;29.53;98378.76;79617;1299;3013698;-72
2023/08/07 16:10:26;;;;;;;9.10;3.00;;;;;;;35.07;29.51;98383.13;79660;1294;3011586;-71
2023/08/07 16:12:54;;;;;;;6.60;2.70;;;;;;;35.02;29.65;98385.50;78763;1294;3026604;-73
2023/08/07 16:15:24;;;;;;;12.10;3.20;;;;;;;34.97;29.71;98394.43;79539;1306;3018363;-72
2023/08/07 16:17:53;;;;;;;14.70;3.50;;;;;;;34.92;29.98;98396.14;79395;1298;3011548;-73
2023/08/07 16:20:19;;;;;;;10.50;3.40;;;;;;;34.80;30.16;98404.30;79845;1296;3012784;-73
2023/08/07 16:22:46;;;;;;;7.40;3.40;;;;;;;34.55;30.61;98403.98;79868;1298;3011895;-73
2023/08/07 16:25:14;;;;;;;20.00;3.70;;;;;;;34.44;30.99;98406.73;78474;1298;3026200;-73
2023/08/07 16:27:40;;;;;;;8.70;3.20;;;;;;;34.21;31.41;98407.51;79494;1294;3013412;-75
2023/08/07 16:30:07;;;;;;;8.40;2.70;;;;;;;33.82;31.84;98416.04;79641;1294;3011876;-71
2023/08/07 16:32:36;;;;;;;8.00;2.70;;;;;;;33.32;32.71;98412.19;78486;1298;3028052;-73
2023/08/07 16:35:04;;;;;;;11.70;2.70;;;;;;;33.14;33.11;98418.75;79571;1294;3014267;-74
2023/08/07 16:37:30;;;;;;;7.90;2.50;;;;;;;32.84;33.92;98420.98;79675;1294;3011581;-72
2023/08/07 16:39:58;;;;;;;8.30;2.70;;;;;;;32.48;34.40;98423.35;78361;1294;3055894;-72
2023/08/07 16:42:25;;;;;;;11.80;3.00;;;;;;;32.33;34.68;98426.41;79622;1297;3013592;-74
2023/08/07 16:44:51;;;;;;;12.30;2.70;;;;;;;32.25;34.84;98431.83;79570;1297;3011572;-70
2023/08/07 16:47:19;;;;;;;8.70;2.70;;;;;;;31.81;35.65;98433.13;78747;1297;3026768;-72
2023/08/07 16:49:47;;;;;;;10.50;2.30;;;;;;;31.58;36.27;98435.55;79878;1298;3013435;-72
2023/08/07 16:52:13;;;;;;;7.70;2.40;;;;;;;31.55;36.06;98438.71;80127;1294;3013668;-75
2023/08/07 16:54:41;;;;;;;9.30;2.90;;;;;;;31.41;36.72;98438.01;78767;1294;3057721;-73
2023/08/07 16:57:08;;;;;;;16.00;2.60;;;;;;;31.31;37.10;98439.97;79819;1296;3013482;-73
2023/08/07 16:59:34;;;;;;;8.60;3.20;;;;;;;31.14;37.28;98448.76;79562;1298;3011939;-72
2023/08/07 17:02:03;;;;;;;12.20;3.10;;;;;;;30.92;37.75;98452.38;78556;1298;3026590;-72
2023/08/07 17:04:32;;;;;;;11.00;3.00;;;;;;;30.81;37.93;98453.97;79644;1299;3014995;-72
2023/08/07 17:07:02;;;;;;;15.40;3.30;;;;;;;30.67;38.22;98462.55;79244;1296;3013327;-71
2023/08/07 17:09:29;;;;;;;12.10;3.00;;;;;;;30.56;38.36;98469.20;79708;1294;3013090;-72
2023/08/07 17:11:55;;;;;;;10.60;3.10;;;;;;;30.46;38.69;98470.52;79697;1294;3013653;-73
2023/08/07 17:14:23;;;;;;;15.60;3.40;;;;;;;30.36;38.95;98474.34;78429;1295;3053649;-71
2023/08/07 17:16:50;;;;;;;13.20;3.60;;;;;;;30.23;39.15;98478.86;79741;1299;3014093;-72
2023/08/07 17:19:16;;;;;;;12.70;3.50;;;;;;;30.11;39.44;98480.55;79619;1299;3011672;-70
2023/08/07 17:21:44;;;;;;;8.60;3.60;;;;;;;30.01;39.79;98485.46;78484;1294;3026068;-71
2023/08/07 17:24:10;;;;;;;12.90;3.20;;;;;;;29.89;39.89;98484.23;79961;1296;3013605;-71
2023/08/07 17:26:37;;;;;;;6.90;3.10;;;;;;;29.83;39.85;98489.63;79911;1294;3011751;-69
2023/08/07 17:29:05;;;;;;;9.30;3.40;;;;;;;29.77;40.08;98494.54;78591;1298;3027754;-71
2023/08/07 17:31:32;;;;;;;8.10;3.30;;;;;;;29.70;40.10;98498.31;79658;1298;3012890;-74
2023/08/07 17:33:58;;;;;;;10.60;3.20;;;;;;;29.56;40.87;98506.98;79595;1298;3011579;-74
2023/08/07 17:36:27;;;;;;;7.90;3.10;;;;;;;29.46;40.98;98512.40;78558;1294;3029292;-71
2023/08/07 17:38:54;;;;;;;7.20;2.90;;;;;;;29.40;40.91;98517.31;79702;1294;3013008;-71
2023/08/07 17:41:21;;;;;;;7.00;3.20;;;;;;;29.27;40.94;98514.21;79718;1294;3011375;-71
2023/08/07 17:43:49;;;;;;;10.70;2.80;;;;;;;29.05;41.21;98519.14;78598;1300;3052951;-72
2023/08/07 17:46:16;;;;;;;10.80;3.70;;;;;;;29.00;41.33;98524.44;80091;1297;3020491;-68
2023/08/07 17:48:44;;;;;;;8.90;4.50;;;;;;;28.91;41.65;98529.27;79892;1298;3012038;-67
2023/08/07 17:51:12;;;;;;;11.70;5.80;;;;;;;28.87;41.31;98533.76;78128;1294;3068255;-68
2023/08/07 17:53:39;;;;;;;13.50;7.00;;;;;;;28.73;41.49;98543.88;79510;1298;3013277;-73
2023/08/07 17:56:06;;;;;;;12.30;5.70;;;;;;;28.62;41.62;98553.11;80778;1294;3012817;-75
2023/08/07 17:58:33;;;;;;;11.90;5.10;;;;;;;28.59;41.55;98556.89;79322;1298;3026311;-75
2023/08/07 18:01:00;;;;;;;10.70;4.00;;;;;;;28.53;41.65;98564.84;81004;1298;3018381;-73
2023/08/07 18:03:27;;;;;;;10.90;3.30;;;;;;;28.47;42.01;98572.49;80900;1298;3011633;-70
2023/08/07 18:05:55;;;;;;;10.20;3.30;;;;;;;28.27;42.46;98569.93;78915;1300;3026059;-67
2023/08/07 18:08:21;;;;;;;9.50;3.20;;;;;;;28.22;42.70;98565.35;80735;1294;3012935;-69
2023/08/07 18:10:48;;;;;;;7.70;3.10;;;;;;;28.18;43.01;98573.17;80420;1294;3011450;-75
2023/08/07 18:13:15;;;;;;;13.30;3.30;;;;;;;28.06;43.72;98582.20;79227;1300;3027550;-72
2023/08/07 18:15:42;;;;;;;9.00;3.30;;;;;;;27.86;44.78;98591.92;80445;1298;3012753;-71
2023/08/07 18:18:08;;;;;;;11.50;3.50;;;;;;;27.75;45.36;98585.55;80575;1298;3012056;-69
2023/08/07 18:20:37;;;;;;;9.50;3.20;;;;;;;27.81;45.43;98591.03;79550;1294;3027516;-72
2023/08/07 18:23:03;;;;;;;8.90;3.50;;;;;;;27.66;46.02;98591.47;80886;1298;3012870;-73
2023/08/07 18:25:30;;;;;;;9.10;3.70;;;;;;;27.45;46.98;98600.03;80935;1294;3011766;-71
2023/08/07 18:27:58;;;;;;;7.70;3.70;;;;;;;27.35;47.33;98594.44;79277;1294;3025910;-75
2023/08/07 18:30:24;;;;;;;8.60;3.70;;;;;;;27.25;47.87;98593.80;80925;1300;3014107;-76
2023/08/07 18:32:51;;;;;;;9.50;3.60;;;;;;;27.17;48.26;98599.02;80770;1298;3011469;-65
2023/08/07 18:35:19;;;;;;;16.30;3.70;;;;;;;27.18;48.22;98601.13;79047;1298;3026984;-73
2023/08/07 18:37:45;;;;;;;5.50;2.80;;;;;;;27.18;48.32;98601.36;80258;1296;3018834;-72
2023/08/07 18:40:12;;;;;;;8.10;3.30;;;;;;;27.07;48.93;98601.84;80570;1294;3011667;-68
2023/08/07 18:42:40;;;;;;;6.40;3.20;;;;;;;27.03;49.04;98607.52;78993;1295;3026484;-63